sensor_id;sensor_type;location;lat;lon;timestamp;P1;durP1;ratioP1;P2;durP2;ratioP2
18822;SDS011;9540;51.550;7.980;2022-10-15T00:00:37;13.55;;;10.60;;
18822;SDS011;9540;51.550;7.980;2022-10-15T00:03:04;13.85;;;10.65;;
18822;SDS011;9540;51.550;7.980;2022-10-15T00:05:32;14.07;;;10.27;;
18822;SDS011;9540;51.550;7.980;2022-10-15T00:08:03;17.00;;;12.23;;
18822;SDS011;9540;51.550;7.980;2022-10-15T00:10:32;15.35;;;11.32;;
18822;SDS011;9540;51.550;7.980;2022-10-15T00:12:59;14.63;;;10.98;;
18822;SDS011;9540;51.550;7.980;2022-10-15T00:15:27;13.10;;;10.70;;
18822;SDS011;9540;51.550;7.980;2022-10-15T00:17:54;15.40;;;11.35;;
18822;SDS011;9540;51.550;7.980;2022-10-15T00:20:21;13.13;;;10.57;;
18822;SDS011;9540;51.550;7.980;2022-10-15T00:22:48;15.98;;;12.02;;
18822;SDS011;9540;51.550;7.980;2022-10-15T00:25:16;16.23;;;12.27;;
18822;SDS011;9540;51.550;7.980;2022-10-15T00:27:43;18.30;;;11.85;;
18822;SDS011;9540;51.550;7.980;2022-10-15T00:30:11;16.50;;;11.70;;
18822;SDS011;9540;51.550;7.980;2022-10-15T00:32:38;20.08;;;12.63;;
18822;SDS011;9540;51.550;7.980;2022-10-15T00:35:05;17.75;;;11.77;;
18822;SDS011;9540;51.550;7.980;2022-10-15T00:37:33;14.60;;;12.30;;
18822;SDS011;9540;51.550;7.980;2022-10-15T00:40:00;15.27;;;11.65;;
18822;SDS011;9540;51.550;7.980;2022-10-15T00:42:28;13.68;;;11.52;;
18822;SDS011;9540;51.550;7.980;2022-10-15T00:44:56;14.43;;;10.70;;
18822;SDS011;9540;51.550;7.980;2022-10-15T00:47:29;14.02;;;10.98;;
18822;SDS011;9540;51.550;7.980;2022-10-15T00:50:02;17.80;;;12.65;;
18822;SDS011;9540;51.550;7.980;2022-10-15T00:52:33;17.33;;;11.52;;
18822;SDS011;9540;51.550;7.980;2022-10-15T00:55:09;13.70;;;11.52;;
18822;SDS011;9540;51.550;7.980;2022-10-15T00:57:40;20.17;;;13.25;;
18822;SDS011;9540;51.550;7.980;2022-10-15T01:00:11;17.63;;;13.52;;
18822;SDS011;9540;51.550;7.980;2022-10-15T01:02:40;25.52;;;16.15;;
18822;SDS011;9540;51.550;7.980;2022-10-15T01:05:08;23.38;;;16.48;;
18822;SDS011;9540;51.550;7.980;2022-10-15T01:07:35;23.73;;;16.83;;
18822;SDS011;9540;51.550;7.980;2022-10-15T01:10:03;22.40;;;16.48;;
18822;SDS011;9540;51.550;7.980;2022-10-15T01:12:36;30.15;;;18.63;;
18822;SDS011;9540;51.550;7.980;2022-10-15T01:15:17;24.85;;;17.05;;
18822;SDS011;9540;51.550;7.980;2022-10-15T01:17:49;32.60;;;19.52;;
18822;SDS011;9540;51.550;7.980;2022-10-15T01:20:26;29.88;;;17.52;;
18822;SDS011;9540;51.550;7.980;2022-10-15T01:23:18;24.45;;;14.95;;
18822;SDS011;9540;51.550;7.980;2022-10-15T01:26:13;24.80;;;15.70;;
18822;SDS011;9540;51.550;7.980;2022-10-15T01:29:03;23.60;;;16.42;;
18822;SDS011;9540;51.550;7.980;2022-10-15T01:31:39;27.42;;;16.55;;
18822;SDS011;9540;51.550;7.980;2022-10-15T01:34:10;28.80;;;17.52;;
18822;SDS011;9540;51.550;7.980;2022-10-15T01:36:42;31.83;;;17.08;;
18822;SDS011;9540;51.550;7.980;2022-10-15T01:39:18;31.00;;;17.05;;
18822;SDS011;9540;51.550;7.980;2022-10-15T01:41:49;31.77;;;16.13;;
18822;SDS011;9540;51.550;7.980;2022-10-15T01:44:20;30.77;;;16.90;;
18822;SDS011;9540;51.550;7.980;2022-10-15T01:46:52;25.23;;;16.52;;
18822;SDS011;9540;51.550;7.980;2022-10-15T01:49:23;25.17;;;15.57;;
18822;SDS011;9540;51.550;7.980;2022-10-15T01:51:54;25.05;;;15.88;;
18822;SDS011;9540;51.550;7.980;2022-10-15T01:54:23;25.23;;;14.52;;
18822;SDS011;9540;51.550;7.980;2022-10-15T01:56:52;20.98;;;13.57;;
18822;SDS011;9540;51.550;7.980;2022-10-15T01:59:21;32.13;;;16.40;;
18822;SDS011;9540;51.550;7.980;2022-10-15T02:01:52;22.98;;;13.68;;
18822;SDS011;9540;51.550;7.980;2022-10-15T02:04:20;25.15;;;13.52;;
18822;SDS011;9540;51.550;7.980;2022-10-15T02:06:49;22.42;;;14.15;;
18822;SDS011;9540;51.550;7.980;2022-10-15T02:09:24;25.90;;;14.45;;
18822;SDS011;9540;51.550;7.980;2022-10-15T02:11:59;26.33;;;15.85;;
18822;SDS011;9540;51.550;7.980;2022-10-15T02:14:36;26.90;;;14.70;;
18822;SDS011;9540;51.550;7.980;2022-10-15T02:17:11;35.17;;;18.20;;
18822;SDS011;9540;51.550;7.980;2022-10-15T02:19:47;28.85;;;16.42;;
18822;SDS011;9540;51.550;7.980;2022-10-15T02:22:19;27.80;;;15.38;;
18822;SDS011;9540;51.550;7.980;2022-10-15T02:24:51;37.13;;;17.35;;
18822;SDS011;9540;51.550;7.980;2022-10-15T02:27:21;48.03;;;19.25;;
18822;SDS011;9540;51.550;7.980;2022-10-15T02:29:50;33.60;;;17.50;;
18822;SDS011;9540;51.550;7.980;2022-10-15T02:32:20;43.25;;;20.58;;
18822;SDS011;9540;51.550;7.980;2022-10-15T02:34:48;35.42;;;17.60;;
18822;SDS011;9540;51.550;7.980;2022-10-15T02:37:18;36.75;;;18.50;;
18822;SDS011;9540;51.550;7.980;2022-10-15T02:39:47;42.42;;;20.05;;
18822;SDS011;9540;51.550;7.980;2022-10-15T02:42:14;37.55;;;18.50;;
18822;SDS011;9540;51.550;7.980;2022-10-15T02:44:42;41.83;;;19.77;;
18822;SDS011;9540;51.550;7.980;2022-10-15T02:47:10;41.78;;;18.42;;
18822;SDS011;9540;51.550;7.980;2022-10-15T02:49:38;46.90;;;20.60;;
18822;SDS011;9540;51.550;7.980;2022-10-15T02:52:05;45.17;;;19.75;;
18822;SDS011;9540;51.550;7.980;2022-10-15T02:54:32;44.97;;;20.48;;
18822;SDS011;9540;51.550;7.980;2022-10-15T02:56:59;57.45;;;23.48;;
18822;SDS011;9540;51.550;7.980;2022-10-15T02:59:26;50.75;;;21.40;;
18822;SDS011;9540;51.550;7.980;2022-10-15T03:01:53;58.17;;;22.83;;
18822;SDS011;9540;51.550;7.980;2022-10-15T03:04:20;57.60;;;22.13;;
18822;SDS011;9540;51.550;7.980;2022-10-15T03:06:49;51.78;;;21.95;;
18822;SDS011;9540;51.550;7.980;2022-10-15T03:09:16;55.63;;;22.27;;
18822;SDS011;9540;51.550;7.980;2022-10-15T03:11:43;58.83;;;23.38;;
18822;SDS011;9540;51.550;7.980;2022-10-15T03:14:10;44.83;;;20.65;;
18822;SDS011;9540;51.550;7.980;2022-10-15T03:16:37;60.05;;;22.88;;
18822;SDS011;9540;51.550;7.980;2022-10-15T03:19:05;52.58;;;23.33;;
18822;SDS011;9540;51.550;7.980;2022-10-15T03:21:31;62.58;;;26.10;;
18822;SDS011;9540;51.550;7.980;2022-10-15T03:24:00;64.40;;;24.67;;
18822;SDS011;9540;51.550;7.980;2022-10-15T03:26:27;58.75;;;25.88;;
18822;SDS011;9540;51.550;7.980;2022-10-15T03:28:54;65.78;;;26.42;;
18822;SDS011;9540;51.550;7.980;2022-10-15T03:31:21;53.42;;;24.63;;
18822;SDS011;9540;51.550;7.980;2022-10-15T03:33:48;71.82;;;28.30;;
18822;SDS011;9540;51.550;7.980;2022-10-15T03:36:15;75.82;;;27.17;;
18822;SDS011;9540;51.550;7.980;2022-10-15T03:38:42;62.42;;;25.20;;
18822;SDS011;9540;51.550;7.980;2022-10-15T03:41:11;69.05;;;27.50;;
18822;SDS011;9540;51.550;7.980;2022-10-15T03:43:38;64.75;;;25.33;;
18822;SDS011;9540;51.550;7.980;2022-10-15T03:46:05;61.60;;;25.10;;
18822;SDS011;9540;51.550;7.980;2022-10-15T03:48:32;61.88;;;26.45;;
18822;SDS011;9540;51.550;7.980;2022-10-15T03:50:59;57.78;;;24.88;;
18822;SDS011;9540;51.550;7.980;2022-10-15T03:53:26;63.28;;;25.50;;
18822;SDS011;9540;51.550;7.980;2022-10-15T03:55:53;52.88;;;23.60;;
18822;SDS011;9540;51.550;7.980;2022-10-15T03:58:21;63.40;;;24.98;;
18822;SDS011;9540;51.550;7.980;2022-10-15T04:00:48;60.88;;;25.08;;
18822;SDS011;9540;51.550;7.980;2022-10-15T04:03:15;52.38;;;22.98;;
18822;SDS011;9540;51.550;7.980;2022-10-15T04:05:48;67.32;;;25.27;;
18822;SDS011;9540;51.550;7.980;2022-10-15T04:08:16;62.50;;;25.58;;
18822;SDS011;9540;51.550;7.980;2022-10-15T04:10:43;67.50;;;28.80;;
18822;SDS011;9540;51.550;7.980;2022-10-15T04:13:10;64.47;;;26.13;;
18822;SDS011;9540;51.550;7.980;2022-10-15T04:15:39;57.78;;;23.75;;
18822;SDS011;9540;51.550;7.980;2022-10-15T04:18:06;60.50;;;25.88;;
18822;SDS011;9540;51.550;7.980;2022-10-15T04:20:33;66.57;;;27.10;;
18822;SDS011;9540;51.550;7.980;2022-10-15T04:23:00;68.57;;;25.55;;
18822;SDS011;9540;51.550;7.980;2022-10-15T04:25:27;68.03;;;26.33;;
18822;SDS011;9540;51.550;7.980;2022-10-15T04:27:55;66.00;;;26.75;;
18822;SDS011;9540;51.550;7.980;2022-10-15T04:30:22;63.33;;;25.40;;
18822;SDS011;9540;51.550;7.980;2022-10-15T04:32:51;65.03;;;26.27;;
18822;SDS011;9540;51.550;7.980;2022-10-15T04:35:18;66.45;;;26.05;;
18822;SDS011;9540;51.550;7.980;2022-10-15T04:37:46;70.47;;;29.30;;
18822;SDS011;9540;51.550;7.980;2022-10-15T04:40:13;75.07;;;27.75;;
18822;SDS011;9540;51.550;7.980;2022-10-15T04:42:40;79.75;;;28.33;;
18822;SDS011;9540;51.550;7.980;2022-10-15T04:45:07;85.82;;;29.85;;
18822;SDS011;9540;51.550;7.980;2022-10-15T04:47:35;66.18;;;26.23;;
18822;SDS011;9540;51.550;7.980;2022-10-15T04:50:04;71.90;;;27.25;;
18822;SDS011;9540;51.550;7.980;2022-10-15T04:52:32;84.03;;;28.27;;
18822;SDS011;9540;51.550;7.980;2022-10-15T04:55:00;78.90;;;27.75;;
18822;SDS011;9540;51.550;7.980;2022-10-15T04:57:28;68.65;;;26.33;;
18822;SDS011;9540;51.550;7.980;2022-10-15T04:59:55;74.55;;;27.58;;
18822;SDS011;9540;51.550;7.980;2022-10-15T05:02:22;67.90;;;28.73;;
18822;SDS011;9540;51.550;7.980;2022-10-15T05:04:50;73.55;;;29.75;;
18822;SDS011;9540;51.550;7.980;2022-10-15T05:07:18;75.30;;;29.52;;
18822;SDS011;9540;51.550;7.980;2022-10-15T05:09:45;66.65;;;28.80;;
18822;SDS011;9540;51.550;7.980;2022-10-15T05:12:12;64.25;;;27.98;;
18822;SDS011;9540;51.550;7.980;2022-10-15T05:14:39;76.25;;;29.33;;
18822;SDS011;9540;51.550;7.980;2022-10-15T05:17:06;77.68;;;28.95;;
18822;SDS011;9540;51.550;7.980;2022-10-15T05:19:33;76.80;;;30.08;;
18822;SDS011;9540;51.550;7.980;2022-10-15T05:22:00;74.15;;;29.00;;
18822;SDS011;9540;51.550;7.980;2022-10-15T05:24:29;82.38;;;30.40;;
18822;SDS011;9540;51.550;7.980;2022-10-15T05:26:56;81.93;;;28.63;;
18822;SDS011;9540;51.550;7.980;2022-10-15T05:29:23;74.63;;;28.23;;
18822;SDS011;9540;51.550;7.980;2022-10-15T05:31:50;77.78;;;29.25;;
18822;SDS011;9540;51.550;7.980;2022-10-15T05:34:17;76.20;;;29.00;;
18822;SDS011;9540;51.550;7.980;2022-10-15T05:36:44;75.63;;;29.70;;
18822;SDS011;9540;51.550;7.980;2022-10-15T05:39:11;67.80;;;28.13;;
18822;SDS011;9540;51.550;7.980;2022-10-15T05:41:40;69.68;;;27.33;;
18822;SDS011;9540;51.550;7.980;2022-10-15T05:44:07;70.97;;;27.20;;
18822;SDS011;9540;51.550;7.980;2022-10-15T05:46:34;67.68;;;26.00;;
18822;SDS011;9540;51.550;7.980;2022-10-15T05:49:01;72.60;;;28.13;;
18822;SDS011;9540;51.550;7.980;2022-10-15T05:51:28;67.00;;;27.80;;
18822;SDS011;9540;51.550;7.980;2022-10-15T05:53:55;63.13;;;25.48;;
18822;SDS011;9540;51.550;7.980;2022-10-15T05:56:25;68.78;;;26.50;;
18822;SDS011;9540;51.550;7.980;2022-10-15T05:58:53;66.80;;;25.58;;
18822;SDS011;9540;51.550;7.980;2022-10-15T06:01:20;53.72;;;24.65;;
18822;SDS011;9540;51.550;7.980;2022-10-15T06:03:47;71.20;;;25.88;;
18822;SDS011;9540;51.550;7.980;2022-10-15T06:06:15;73.47;;;25.73;;
18822;SDS011;9540;51.550;7.980;2022-10-15T06:08:44;72.47;;;26.52;;
18822;SDS011;9540;51.550;7.980;2022-10-15T06:11:11;71.25;;;26.02;;
18822;SDS011;9540;51.550;7.980;2022-10-15T06:13:38;59.35;;;24.50;;
18822;SDS011;9540;51.550;7.980;2022-10-15T06:16:08;65.75;;;25.70;;
18822;SDS011;9540;51.550;7.980;2022-10-15T06:18:35;60.92;;;25.60;;
18822;SDS011;9540;51.550;7.980;2022-10-15T06:21:04;74.43;;;24.88;;
18822;SDS011;9540;51.550;7.980;2022-10-15T06:23:31;66.47;;;23.05;;
18822;SDS011;9540;51.550;7.980;2022-10-15T06:26:00;81.05;;;28.73;;
18822;SDS011;9540;51.550;7.980;2022-10-15T06:28:28;62.67;;;23.95;;
18822;SDS011;9540;51.550;7.980;2022-10-15T06:30:56;84.70;;;30.75;;
18822;SDS011;9540;51.550;7.980;2022-10-15T06:33:25;97.30;;;33.35;;
18822;SDS011;9540;51.550;7.980;2022-10-15T06:35:52;121.38;;;36.10;;
18822;SDS011;9540;51.550;7.980;2022-10-15T06:38:19;103.15;;;36.55;;
18822;SDS011;9540;51.550;7.980;2022-10-15T06:40:46;114.63;;;36.53;;
18822;SDS011;9540;51.550;7.980;2022-10-15T06:43:13;108.78;;;36.30;;
18822;SDS011;9540;51.550;7.980;2022-10-15T06:45:40;105.97;;;34.47;;
18822;SDS011;9540;51.550;7.980;2022-10-15T06:48:08;109.35;;;36.35;;
18822;SDS011;9540;51.550;7.980;2022-10-15T06:50:38;102.93;;;35.55;;
18822;SDS011;9540;51.550;7.980;2022-10-15T06:53:05;104.95;;;35.20;;
18822;SDS011;9540;51.550;7.980;2022-10-15T06:55:32;88.97;;;31.98;;
18822;SDS011;9540;51.550;7.980;2022-10-15T06:58:00;84.43;;;32.22;;
18822;SDS011;9540;51.550;7.980;2022-10-15T07:00:27;81.45;;;30.92;;
18822;SDS011;9540;51.550;7.980;2022-10-15T07:02:54;79.20;;;28.48;;
18822;SDS011;9540;51.550;7.980;2022-10-15T07:05:21;70.72;;;30.38;;
18822;SDS011;9540;51.550;7.980;2022-10-15T07:07:52;78.05;;;31.35;;
18822;SDS011;9540;51.550;7.980;2022-10-15T07:10:20;82.28;;;31.52;;
18822;SDS011;9540;51.550;7.980;2022-10-15T07:12:47;87.60;;;29.52;;
18822;SDS011;9540;51.550;7.980;2022-10-15T07:15:15;69.30;;;28.02;;
18822;SDS011;9540;51.550;7.980;2022-10-15T07:17:45;61.80;;;28.60;;
18822;SDS011;9540;51.550;7.980;2022-10-15T07:20:13;63.78;;;27.60;;
18822;SDS011;9540;51.550;7.980;2022-10-15T07:22:40;58.70;;;27.20;;
18822;SDS011;9540;51.550;7.980;2022-10-15T07:25:09;57.90;;;26.58;;
18822;SDS011;9540;51.550;7.980;2022-10-15T07:27:36;56.58;;;26.92;;
18822;SDS011;9540;51.550;7.980;2022-10-15T07:30:04;56.05;;;26.15;;
18822;SDS011;9540;51.550;7.980;2022-10-15T07:32:33;53.72;;;25.63;;
18822;SDS011;9540;51.550;7.980;2022-10-15T07:35:00;49.53;;;26.35;;
18822;SDS011;9540;51.550;7.980;2022-10-15T07:37:27;54.22;;;26.98;;
18822;SDS011;9540;51.550;7.980;2022-10-15T07:39:55;52.28;;;25.23;;
18822;SDS011;9540;51.550;7.980;2022-10-15T07:42:24;50.55;;;25.52;;
18822;SDS011;9540;51.550;7.980;2022-10-15T07:44:51;44.45;;;23.80;;
18822;SDS011;9540;51.550;7.980;2022-10-15T07:47:20;47.05;;;24.45;;
18822;SDS011;9540;51.550;7.980;2022-10-15T07:49:48;49.35;;;25.08;;
18822;SDS011;9540;51.550;7.980;2022-10-15T07:52:15;46.30;;;23.75;;
18822;SDS011;9540;51.550;7.980;2022-10-15T07:54:42;42.17;;;22.27;;
18822;SDS011;9540;51.550;7.980;2022-10-15T07:57:09;39.95;;;20.58;;
18822;SDS011;9540;51.550;7.980;2022-10-15T07:59:37;43.08;;;21.65;;
18822;SDS011;9540;51.550;7.980;2022-10-15T08:02:04;41.40;;;21.88;;
18822;SDS011;9540;51.550;7.980;2022-10-15T08:04:31;45.63;;;22.73;;
18822;SDS011;9540;51.550;7.980;2022-10-15T08:06:59;40.13;;;22.02;;
18822;SDS011;9540;51.550;7.980;2022-10-15T08:09:26;39.25;;;21.25;;
18822;SDS011;9540;51.550;7.980;2022-10-15T08:11:53;35.92;;;20.95;;
18822;SDS011;9540;51.550;7.980;2022-10-15T08:14:20;38.63;;;21.40;;
18822;SDS011;9540;51.550;7.980;2022-10-15T08:16:48;36.63;;;20.95;;
18822;SDS011;9540;51.550;7.980;2022-10-15T08:19:16;39.05;;;22.00;;
18822;SDS011;9540;51.550;7.980;2022-10-15T08:21:43;42.00;;;22.88;;
18822;SDS011;9540;51.550;7.980;2022-10-15T08:24:10;43.05;;;22.77;;
18822;SDS011;9540;51.550;7.980;2022-10-15T08:26:37;38.45;;;20.88;;
18822;SDS011;9540;51.550;7.980;2022-10-15T08:29:04;44.25;;;22.45;;
18822;SDS011;9540;51.550;7.980;2022-10-15T08:31:31;37.45;;;21.25;;
18822;SDS011;9540;51.550;7.980;2022-10-15T08:33:59;38.78;;;21.77;;
18822;SDS011;9540;51.550;7.980;2022-10-15T08:36:27;37.28;;;20.13;;
18822;SDS011;9540;51.550;7.980;2022-10-15T08:38:54;40.58;;;21.88;;
18822;SDS011;9540;51.550;7.980;2022-10-15T08:41:23;38.25;;;21.55;;
18822;SDS011;9540;51.550;7.980;2022-10-15T08:43:54;35.38;;;19.27;;
18822;SDS011;9540;51.550;7.980;2022-10-15T08:46:22;34.10;;;19.83;;
18822;SDS011;9540;51.550;7.980;2022-10-15T08:48:54;26.95;;;16.40;;
18822;SDS011;9540;51.550;7.980;2022-10-15T08:51:25;24.15;;;16.42;;
18822;SDS011;9540;51.550;7.980;2022-10-15T08:53:57;23.67;;;16.15;;
18822;SDS011;9540;51.550;7.980;2022-10-15T08:56:28;21.10;;;14.00;;
18822;SDS011;9540;51.550;7.980;2022-10-15T08:58:59;23.92;;;13.48;;
18822;SDS011;9540;51.550;7.980;2022-10-15T09:01:31;21.98;;;13.05;;
18822;SDS011;9540;51.550;7.980;2022-10-15T09:04:12;17.60;;;12.75;;
18822;SDS011;9540;51.550;7.980;2022-10-15T09:06:48;20.85;;;12.55;;
18822;SDS011;9540;51.550;7.980;2022-10-15T09:09:22;17.02;;;12.35;;
18822;SDS011;9540;51.550;7.980;2022-10-15T09:11:56;16.35;;;11.48;;
18822;SDS011;9540;51.550;7.980;2022-10-15T09:14:33;14.13;;;10.70;;
18822;SDS011;9540;51.550;7.980;2022-10-15T09:17:05;11.30;;;8.13;;
18822;SDS011;9540;51.550;7.980;2022-10-15T09:19:45;10.18;;;8.40;;
18822;SDS011;9540;51.550;7.980;2022-10-15T09:22:17;12.55;;;9.35;;
18822;SDS011;9540;51.550;7.980;2022-10-15T09:24:48;12.80;;;8.32;;
18822;SDS011;9540;51.550;7.980;2022-10-15T09:27:18;10.18;;;8.18;;
18822;SDS011;9540;51.550;7.980;2022-10-15T09:29:54;11.23;;;8.23;;
18822;SDS011;9540;51.550;7.980;2022-10-15T09:32:29;11.32;;;8.82;;
18822;SDS011;9540;51.550;7.980;2022-10-15T09:35:05;11.35;;;8.27;;
18822;SDS011;9540;51.550;7.980;2022-10-15T09:37:45;11.45;;;8.25;;
18822;SDS011;9540;51.550;7.980;2022-10-15T09:40:28;11.23;;;7.95;;
18822;SDS011;9540;51.550;7.980;2022-10-15T09:43:04;11.45;;;8.45;;
18822;SDS011;9540;51.550;7.980;2022-10-15T09:45:31;9.48;;;7.88;;
18822;SDS011;9540;51.550;7.980;2022-10-15T09:47:59;14.18;;;8.68;;
18822;SDS011;9540;51.550;7.980;2022-10-15T09:50:32;12.15;;;8.65;;
18822;SDS011;9540;51.550;7.980;2022-10-15T09:53:11;10.70;;;7.65;;
18822;SDS011;9540;51.550;7.980;2022-10-15T09:55:45;12.35;;;7.45;;
18822;SDS011;9540;51.550;7.980;2022-10-15T09:58:16;9.18;;;7.47;;
18822;SDS011;9540;51.550;7.980;2022-10-15T10:00:55;8.02;;;6.47;;
18822;SDS011;9540;51.550;7.980;2022-10-15T10:03:26;8.88;;;6.47;;
18822;SDS011;9540;51.550;7.980;2022-10-15T10:05:58;6.32;;;4.47;;
18822;SDS011;9540;51.550;7.980;2022-10-15T10:08:30;4.20;;;3.75;;
18822;SDS011;9540;51.550;7.980;2022-10-15T10:11:00;9.20;;;4.68;;
18822;SDS011;9540;51.550;7.980;2022-10-15T10:13:29;5.93;;;4.10;;
18822;SDS011;9540;51.550;7.980;2022-10-15T10:16:01;3.83;;;3.53;;
18822;SDS011;9540;51.550;7.980;2022-10-15T10:18:30;3.88;;;3.53;;
18822;SDS011;9540;51.550;7.980;2022-10-15T10:20:58;3.50;;;3.20;;
18822;SDS011;9540;51.550;7.980;2022-10-15T10:23:31;5.72;;;2.80;;
18822;SDS011;9540;51.550;7.980;2022-10-15T10:26:00;2.55;;;2.30;;
18822;SDS011;9540;51.550;7.980;2022-10-15T10:28:29;2.30;;;2.10;;
18822;SDS011;9540;51.550;7.980;2022-10-15T10:31:00;2.20;;;2.00;;
18822;SDS011;9540;51.550;7.980;2022-10-15T10:33:31;2.40;;;2.08;;
18822;SDS011;9540;51.550;7.980;2022-10-15T10:36:01;2.78;;;1.83;;
18822;SDS011;9540;51.550;7.980;2022-10-15T10:38:31;1.73;;;1.63;;
18822;SDS011;9540;51.550;7.980;2022-10-15T10:41:00;1.98;;;1.60;;
18822;SDS011;9540;51.550;7.980;2022-10-15T10:43:32;1.40;;;1.40;;
18822;SDS011;9540;51.550;7.980;2022-10-15T10:46:00;1.85;;;1.48;;
18822;SDS011;9540;51.550;7.980;2022-10-15T10:48:36;2.85;;;1.33;;
18822;SDS011;9540;51.550;7.980;2022-10-15T10:51:12;1.42;;;1.25;;
18822;SDS011;9540;51.550;7.980;2022-10-15T10:53:52;1.20;;;1.20;;
18822;SDS011;9540;51.550;7.980;2022-10-15T10:56:22;2.28;;;1.23;;
18822;SDS011;9540;51.550;7.980;2022-10-15T10:58:54;1.20;;;1.10;;
18822;SDS011;9540;51.550;7.980;2022-10-15T11:01:25;1.10;;;1.10;;
18822;SDS011;9540;51.550;7.980;2022-10-15T11:03:53;1.08;;;1.08;;
18822;SDS011;9540;51.550;7.980;2022-10-15T11:06:27;3.28;;;1.00;;
18822;SDS011;9540;51.550;7.980;2022-10-15T11:09:23;1.10;;;1.00;;
18822;SDS011;9540;51.550;7.980;2022-10-15T11:12:03;2.58;;;1.00;;
18822;SDS011;9540;51.550;7.980;2022-10-15T11:14:39;1.95;;;0.80;;
18822;SDS011;9540;51.550;7.980;2022-10-15T11:17:13;2.45;;;0.95;;
18822;SDS011;9540;51.550;7.980;2022-10-15T11:19:50;0.77;;;0.77;;
18822;SDS011;9540;51.550;7.980;2022-10-15T11:22:34;0.73;;;0.73;;
18822;SDS011;9540;51.550;7.980;2022-10-15T11:25:14;1.33;;;0.75;;
18822;SDS011;9540;51.550;7.980;2022-10-15T11:27:53;2.15;;;0.82;;
18822;SDS011;9540;51.550;7.980;2022-10-15T11:30:31;0.88;;;0.85;;
18822;SDS011;9540;51.550;7.980;2022-10-15T11:33:14;2.38;;;0.73;;
18822;SDS011;9540;51.550;7.980;2022-10-15T11:36:13;0.70;;;0.70;;
18822;SDS011;9540;51.550;7.980;2022-10-15T11:39:05;0.60;;;0.60;;
18822;SDS011;9540;51.550;7.980;2022-10-15T11:41:50;0.60;;;0.60;;
18822;SDS011;9540;51.550;7.980;2022-10-15T11:44:24;0.85;;;0.60;;
18822;SDS011;9540;51.550;7.980;2022-10-15T11:47:10;0.60;;;0.60;;
18822;SDS011;9540;51.550;7.980;2022-10-15T11:49:53;0.98;;;0.90;;
18822;SDS011;9540;51.550;7.980;2022-10-15T11:52:35;2.40;;;0.77;;
18822;SDS011;9540;51.550;7.980;2022-10-15T11:55:13;0.70;;;0.70;;
18822;SDS011;9540;51.550;7.980;2022-10-15T11:57:46;0.88;;;0.70;;
18822;SDS011;9540;51.550;7.980;2022-10-15T12:00:20;0.70;;;0.70;;
18822;SDS011;9540;51.550;7.980;2022-10-15T12:02:55;0.50;;;0.50;;
18822;SDS011;9540;51.550;7.980;2022-10-15T12:05:30;0.63;;;0.63;;
18822;SDS011;9540;51.550;7.980;2022-10-15T12:08:01;1.20;;;0.40;;
18822;SDS011;9540;51.550;7.980;2022-10-15T12:10:32;0.63;;;0.63;;
18822;SDS011;9540;51.550;7.980;2022-10-15T12:13:24;1.65;;;0.50;;
18822;SDS011;9540;51.550;7.980;2022-10-15T12:15:59;1.65;;;0.50;;
18822;SDS011;9540;51.550;7.980;2022-10-15T12:18:37;0.47;;;0.47;;
18822;SDS011;9540;51.550;7.980;2022-10-15T12:21:29;5.10;;;0.60;;
18822;SDS011;9540;51.550;7.980;2022-10-15T12:27:14;0.40;;;0.40;;
18822;SDS011;9540;51.550;7.980;2022-10-15T12:29:48;0.60;;;0.60;;
18822;SDS011;9540;51.550;7.980;2022-10-15T12:32:21;0.50;;;0.50;;
18822;SDS011;9540;51.550;7.980;2022-10-15T12:34:53;0.88;;;0.70;;
18822;SDS011;9540;51.550;7.980;2022-10-15T12:37:21;0.43;;;0.40;;
18822;SDS011;9540;51.550;7.980;2022-10-15T12:39:53;1.48;;;0.50;;
18822;SDS011;9540;51.550;7.980;2022-10-15T12:42:23;4.50;;;0.60;;
18822;SDS011;9540;51.550;7.980;2022-10-15T12:44:55;0.60;;;0.50;;
18822;SDS011;9540;51.550;7.980;2022-10-15T12:47:45;0.50;;;0.50;;
18822;SDS011;9540;51.550;7.980;2022-10-15T12:50:16;0.50;;;0.50;;
18822;SDS011;9540;51.550;7.980;2022-10-15T12:52:51;0.70;;;0.50;;
18822;SDS011;9540;51.550;7.980;2022-10-15T12:55:22;1.10;;;0.50;;
18822;SDS011;9540;51.550;7.980;2022-10-15T12:57:56;1.55;;;0.60;;
18822;SDS011;9540;51.550;7.980;2022-10-15T13:03:19;1.10;;;0.50;;
18822;SDS011;9540;51.550;7.980;2022-10-15T13:05:49;2.72;;;0.85;;
18822;SDS011;9540;51.550;7.980;2022-10-15T13:08:19;1.10;;;0.60;;
18822;SDS011;9540;51.550;7.980;2022-10-15T13:10:50;0.75;;;0.75;;
18822;SDS011;9540;51.550;7.980;2022-10-15T13:13:21;0.68;;;0.60;;
18822;SDS011;9540;51.550;7.980;2022-10-15T13:15:52;0.50;;;0.50;;
18822;SDS011;9540;51.550;7.980;2022-10-15T13:18:23;0.60;;;0.60;;
18822;SDS011;9540;51.550;7.980;2022-10-15T13:20:51;1.08;;;0.65;;
18822;SDS011;9540;51.550;7.980;2022-10-15T13:23:21;0.60;;;0.60;;
18822;SDS011;9540;51.550;7.980;2022-10-15T13:25:52;0.60;;;0.60;;
18822;SDS011;9540;51.550;7.980;2022-10-15T13:28:36;1.17;;;0.70;;
18822;SDS011;9540;51.550;7.980;2022-10-15T13:31:10;0.50;;;0.40;;
18822;SDS011;9540;51.550;7.980;2022-10-15T13:33:41;1.02;;;0.80;;
18822;SDS011;9540;51.550;7.980;2022-10-15T13:36:15;2.33;;;0.70;;
18822;SDS011;9540;51.550;7.980;2022-10-15T13:38:50;0.60;;;0.60;;
18822;SDS011;9540;51.550;7.980;2022-10-15T13:41:22;4.68;;;1.05;;
18822;SDS011;9540;51.550;7.980;2022-10-15T13:43:54;1.25;;;0.63;;
18822;SDS011;9540;51.550;7.980;2022-10-15T13:46:26;0.95;;;0.70;;
18822;SDS011;9540;51.550;7.980;2022-10-15T13:48:56;0.60;;;0.60;;
18822;SDS011;9540;51.550;7.980;2022-10-15T13:51:27;2.17;;;0.60;;
18822;SDS011;9540;51.550;7.980;2022-10-15T13:53:58;2.95;;;0.70;;
18822;SDS011;9540;51.550;7.980;2022-10-15T13:56:27;2.78;;;0.70;;
18822;SDS011;9540;51.550;7.980;2022-10-15T13:58:55;1.00;;;0.98;;
18822;SDS011;9540;51.550;7.980;2022-10-15T14:01:26;2.47;;;1.58;;
18822;SDS011;9540;51.550;7.980;2022-10-15T14:03:54;2.35;;;1.10;;
18822;SDS011;9540;51.550;7.980;2022-10-15T14:06:23;1.40;;;1.30;;
18822;SDS011;9540;51.550;7.980;2022-10-15T14:08:53;1.17;;;1.17;;
18822;SDS011;9540;51.550;7.980;2022-10-15T14:11:22;3.22;;;1.50;;
18822;SDS011;9540;51.550;7.980;2022-10-15T14:13:51;0.88;;;0.68;;
18822;SDS011;9540;51.550;7.980;2022-10-15T14:16:19;1.20;;;0.82;;
18822;SDS011;9540;51.550;7.980;2022-10-15T14:18:51;1.25;;;1.25;;
18822;SDS011;9540;51.550;7.980;2022-10-15T14:21:20;1.10;;;1.00;;
18822;SDS011;9540;51.550;7.980;2022-10-15T14:24:00;0.82;;;0.82;;
18822;SDS011;9540;51.550;7.980;2022-10-15T14:26:29;0.77;;;0.70;;
18822;SDS011;9540;51.550;7.980;2022-10-15T14:28:57;1.90;;;0.80;;
18822;SDS011;9540;51.550;7.980;2022-10-15T14:31:29;0.93;;;0.93;;
18822;SDS011;9540;51.550;7.980;2022-10-15T14:33:59;1.00;;;1.00;;
18822;SDS011;9540;51.550;7.980;2022-10-15T14:36:27;4.40;;;1.55;;
18822;SDS011;9540;51.550;7.980;2022-10-15T14:41:55;1.90;;;1.80;;
18822;SDS011;9540;51.550;7.980;2022-10-15T14:44:23;1.40;;;1.30;;
18822;SDS011;9540;51.550;7.980;2022-10-15T14:46:50;1.25;;;1.15;;
18822;SDS011;9540;51.550;7.980;2022-10-15T14:49:28;2.65;;;1.98;;
18822;SDS011;9540;51.550;7.980;2022-10-15T14:51:58;0.80;;;0.80;;
18822;SDS011;9540;51.550;7.980;2022-10-15T14:54:34;1.48;;;1.30;;
18822;SDS011;9540;51.550;7.980;2022-10-15T14:57:09;1.58;;;1.10;;
18822;SDS011;9540;51.550;7.980;2022-10-15T14:59:41;1.55;;;0.85;;
18822;SDS011;9540;51.550;7.980;2022-10-15T15:02:09;2.60;;;0.80;;
18822;SDS011;9540;51.550;7.980;2022-10-15T15:04:42;1.35;;;0.80;;
18822;SDS011;9540;51.550;7.980;2022-10-15T15:07:17;2.00;;;0.70;;
18822;SDS011;9540;51.550;7.980;2022-10-15T15:09:48;2.08;;;1.25;;
18822;SDS011;9540;51.550;7.980;2022-10-15T15:12:17;2.42;;;2.22;;